createdAt,value
2019-01-17T00:01:59.869Z,5.30
2019-01-17T00:04:32.796Z,5.30
2019-01-17T00:07:02.846Z,5.30
2019-01-17T00:09:38.811Z,5.30
2019-01-17T00:12:09.608Z,5.30
2019-01-17T00:14:42.196Z,5.30
2019-01-17T00:17:18.686Z,5.30
2019-01-17T00:20:06.851Z,5.30
2019-01-17T00:22:39.767Z,5.30
2019-01-17T00:25:12.890Z,5.30
2019-01-17T00:27:42.873Z,5.20
2019-01-17T00:30:17.085Z,5.30
2019-01-17T00:32:47.002Z,5.20
2019-01-17T00:35:19.708Z,5.20
2019-01-17T00:38:06.218Z,5.20
2019-01-17T00:40:49.320Z,5.20
2019-01-17T00:43:21.917Z,5.20
2019-01-17T00:46:10.328Z,5.10
2019-01-17T00:48:40.843Z,5.10
2019-01-17T00:51:16.399Z,5.10
2019-01-17T00:54:01.138Z,5.10
2019-01-17T00:56:47.483Z,5.10
2019-01-17T00:59:26.298Z,5.10
2019-01-17T01:02:03.992Z,5.10
2019-01-17T01:04:48.999Z,5.10
2019-01-17T01:07:27.573Z,5.10
2019-01-17T01:09:57.620Z,5.20
2019-01-17T01:12:29.957Z,5.20
2019-01-17T01:15:00.655Z,5.20
2019-01-17T01:17:33.353Z,5.20
2019-01-17T01:20:05.987Z,5.20
2019-01-17T01:22:37.622Z,5.20
2019-01-17T01:25:12.648Z,5.20
2019-01-17T01:27:48.287Z,5.20
2019-01-17T01:30:24.488Z,5.20
2019-01-17T01:33:03.591Z,5.30
2019-01-17T01:35:39.327Z,5.30
2019-01-17T01:38:26.680Z,5.30
2019-01-17T01:40:59.269Z,5.30
2019-01-17T01:43:42.101Z,5.30
2019-01-17T01:46:12.005Z,5.30
2019-01-17T01:49:13.093Z,5.30
2019-01-17T01:51:47.515Z,5.30
2019-01-17T01:54:21.862Z,5.30
2019-01-17T01:56:45.823Z,5.30
2019-01-17T01:59:15.662Z,5.30
2019-01-17T02:01:44.031Z,5.30
2019-01-17T02:04:12.308Z,5.30
2019-01-17T02:06:40.642Z,5.30
2019-01-17T02:09:08.941Z,5.30
2019-01-17T02:11:38.625Z,5.30
2019-01-17T02:14:07.011Z,5.40
2019-01-17T02:16:35.441Z,5.30
2019-01-17T02:19:03.724Z,5.30
2019-01-17T02:21:32.124Z,5.30
2019-01-17T02:24:00.538Z,5.30
2019-01-17T02:26:28.858Z,5.30
2019-01-17T02:28:57.161Z,5.30
2019-01-17T02:31:25.435Z,5.30
2019-01-17T02:33:53.917Z,5.30
2019-01-17T02:36:22.290Z,5.30
2019-01-17T02:38:50.592Z,5.30
2019-01-17T02:41:18.944Z,5.30
2019-01-17T02:43:49.220Z,5.30
2019-01-17T02:46:17.505Z,5.30
2019-01-17T02:48:45.902Z,5.30
2019-01-17T02:51:14.178Z,5.30
2019-01-17T02:53:42.553Z,5.20
2019-01-17T02:56:10.857Z,5.30
2019-01-17T02:58:39.111Z,5.30
2019-01-17T03:01:07.399Z,5.20
2019-01-17T03:03:35.726Z,5.20
2019-01-17T03:06:04.008Z,5.30
2019-01-17T03:08:32.392Z,5.30
2019-01-17T03:11:00.848Z,5.30
2019-01-17T03:13:29.172Z,5.30
2019-01-17T03:15:57.515Z,5.30
2019-01-17T03:18:27.567Z,5.30
2019-01-17T03:20:55.817Z,5.30
2019-01-17T03:23:24.260Z,5.30
2019-01-17T03:25:52.932Z,5.30
2019-01-17T03:28:21.214Z,5.30
2019-01-17T03:30:51.224Z,5.30
2019-01-17T03:33:19.571Z,5.30
2019-01-17T03:35:47.875Z,5.30
2019-01-17T03:38:18.914Z,5.20
2019-01-17T03:40:47.296Z,5.30
2019-01-17T03:43:15.612Z,5.30
2019-01-17T03:45:43.916Z,5.30
2019-01-17T03:48:12.425Z,5.30
2019-01-17T03:50:40.813Z,5.30
2019-01-17T03:53:09.111Z,5.30
2019-01-17T03:55:37.421Z,5.30
2019-01-17T03:58:05.714Z,5.30
2019-01-17T04:00:34.101Z,5.40
2019-01-17T04:03:02.481Z,5.30
2019-01-17T04:05:30.825Z,5.40
2019-01-17T04:07:59.150Z,5.40
2019-01-17T04:10:27.503Z,5.40
2019-01-17T04:12:55.973Z,5.40
2019-01-17T04:15:24.366Z,5.40
2019-01-17T04:17:52.618Z,5.40
2019-01-17T04:20:21.087Z,5.40
2019-01-17T04:22:50.268Z,5.40
2019-01-17T04:25:18.597Z,5.50
2019-01-17T04:27:46.921Z,5.40
2019-01-17T04:30:16.952Z,5.40
2019-01-17T04:32:45.209Z,5.40
2019-01-17T04:35:13.490Z,5.40
2019-01-17T04:37:41.786Z,5.40
2019-01-17T04:40:12.396Z,5.40
2019-01-17T04:42:40.701Z,5.40
2019-01-17T04:45:11.945Z,5.40
2019-01-17T04:47:40.226Z,5.40
2019-01-17T04:50:11.421Z,5.40
2019-01-17T04:52:39.767Z,5.40
2019-01-17T04:55:10.551Z,5.40
2019-01-17T04:57:44.309Z,5.40
2019-01-17T05:00:15.396Z,5.40
2019-01-17T05:02:45.349Z,5.40
2019-01-17T05:05:13.766Z,5.40
2019-01-17T05:07:42.103Z,5.50
2019-01-17T05:10:13.189Z,5.40
2019-01-17T05:12:41.554Z,5.50
2019-01-17T05:15:11.846Z,5.60
2019-01-17T05:17:41.049Z,5.50
2019-01-17T05:20:14.545Z,5.50
2019-01-17T05:22:45.383Z,5.50
2019-01-17T05:25:13.934Z,5.60
2019-01-17T05:27:44.795Z,5.50
2019-01-17T05:30:15.608Z,5.50
2019-01-17T05:32:44.030Z,5.50
2019-01-17T05:35:12.307Z,5.50
2019-01-17T05:37:40.602Z,5.50
2019-01-17T05:40:12.394Z,5.50
2019-01-17T05:42:43.564Z,5.50
2019-01-17T05:45:11.886Z,5.50
2019-01-17T05:47:40.419Z,5.50
2019-01-17T05:50:11.613Z,5.50
2019-01-17T05:52:39.894Z,5.50
2019-01-17T05:55:09.889Z,5.50
2019-01-17T05:57:38.263Z,5.50
2019-01-17T06:00:16.256Z,5.50
2019-01-17T06:02:44.661Z,5.50
2019-01-17T06:05:13.242Z,5.50
2019-01-17T06:07:45.248Z,5.50
2019-01-17T06:10:13.359Z,5.50
2019-01-17T06:12:41.741Z,5.50
2019-01-17T06:15:17.770Z,5.50
2019-01-17T06:17:46.254Z,5.50
2019-01-17T06:20:16.238Z,5.50
2019-01-17T06:22:44.593Z,5.40
2019-01-17T06:25:28.170Z,5.40
2019-01-17T06:27:54.736Z,5.40
2019-01-17T06:30:26.732Z,5.30
2019-01-17T06:32:57.461Z,5.40
2019-01-17T06:35:25.744Z,5.40
2019-01-17T06:37:55.093Z,5.40
2019-01-17T06:40:26.045Z,5.40
2019-01-17T06:42:54.389Z,5.40
2019-01-17T06:45:22.671Z,5.40
2019-01-17T06:47:50.981Z,5.40
2019-01-17T06:50:19.305Z,5.40
2019-01-17T06:52:47.596Z,5.40
2019-01-17T06:55:16.035Z,5.40
2019-01-17T06:57:45.964Z,5.40
2019-01-17T07:00:16.520Z,5.40
2019-01-17T07:02:44.901Z,5.50
2019-01-17T07:05:14.479Z,5.40
2019-01-17T07:07:42.947Z,5.40
2019-01-17T07:10:16.088Z,5.40
2019-01-17T07:12:44.130Z,5.40
2019-01-17T07:15:13.048Z,5.40
2019-01-17T07:17:42.790Z,5.40
2019-01-17T07:20:15.535Z,5.40
2019-01-17T07:22:47.463Z,5.40
2019-01-17T07:25:14.221Z,5.40
2019-01-17T07:27:42.615Z,5.30
2019-01-17T07:30:17.096Z,5.20
2019-01-17T07:32:45.475Z,5.20
2019-01-17T07:35:17.734Z,5.30
2019-01-17T07:37:46.152Z,5.30
2019-01-17T07:40:14.507Z,5.30
2019-01-17T07:42:43.048Z,5.30
2019-01-17T07:45:25.853Z,5.30
2019-01-17T07:47:54.649Z,5.30
2019-01-17T07:50:22.952Z,5.40
2019-01-17T07:52:58.570Z,5.40
2019-01-17T07:55:26.881Z,5.40
2019-01-17T07:57:55.897Z,5.40
2019-01-17T08:00:24.272Z,5.30
2019-01-17T08:02:53.307Z,5.30
2019-01-17T08:05:29.349Z,5.30
2019-01-17T08:08:03.160Z,5.30
2019-01-17T08:10:34.749Z,5.20
2019-01-17T08:13:04.120Z,5.30
2019-01-17T08:15:32.405Z,5.30
2019-01-17T08:18:00.677Z,5.30
2019-01-17T08:20:28.994Z,5.30
2019-01-17T08:22:57.281Z,5.30
2019-01-17T08:25:25.688Z,5.30
2019-01-17T08:27:54.098Z,5.30
2019-01-17T08:30:31.949Z,5.40
2019-01-17T08:33:00.444Z,5.50
2019-01-17T08:35:29.409Z,5.60
2019-01-17T08:37:57.664Z,5.60
2019-01-17T08:40:28.218Z,5.60
2019-01-17T08:42:58.836Z,5.60
2019-01-17T08:45:27.131Z,5.60
2019-01-17T08:47:55.509Z,5.70
2019-01-17T08:50:23.798Z,5.70
2019-01-17T08:52:52.863Z,5.70
2019-01-17T08:55:21.218Z,5.80
2019-01-17T08:57:50.097Z,5.80
2019-01-17T09:00:25.953Z,5.80
2019-01-17T09:02:55.120Z,5.80
2019-01-17T09:05:26.352Z,5.80
2019-01-17T09:07:54.636Z,5.90
2019-01-17T09:10:25.334Z,5.90
2019-01-17T09:12:57.991Z,5.80
2019-01-17T09:15:31.258Z,5.90
2019-01-17T09:18:01.636Z,5.90
2019-01-17T09:20:29.947Z,5.90
2019-01-17T09:22:58.286Z,5.90
2019-01-17T09:25:26.713Z,5.90
2019-01-17T09:27:56.648Z,6.00
2019-01-17T09:30:24.918Z,5.90
2019-01-17T09:32:53.437Z,5.80
2019-01-17T09:35:21.703Z,5.80
2019-01-17T09:37:49.973Z,5.80
2019-01-17T09:40:20.925Z,5.80
2019-01-17T09:42:50.972Z,5.70
2019-01-17T09:45:19.329Z,5.60
2019-01-17T09:47:47.751Z,5.40
2019-01-17T09:50:24.135Z,5.20
2019-01-17T09:52:52.402Z,5.10
2019-01-17T09:55:20.649Z,5.10
2019-01-17T09:57:49.092Z,5.00
2019-01-17T10:00:20.557Z,4.90
2019-01-17T10:02:53.006Z,4.90
2019-01-17T10:05:23.743Z,4.80
2019-01-17T10:07:52.109Z,4.50
2019-01-17T10:10:23.955Z,4.50
2019-01-17T10:12:53.325Z,4.40
2019-01-17T10:15:43.135Z,4.30
2019-01-17T10:18:17.224Z,4.30
2019-01-17T10:21:06.617Z,4.30
2019-01-17T10:23:54.690Z,4.30
2019-01-17T10:26:34.600Z,4.30
2019-01-17T10:29:25.714Z,4.00
2019-01-17T10:32:14.620Z,3.80
2019-01-17T10:34:46.176Z,3.70
2019-01-17T10:37:27.729Z,3.50
2019-01-17T10:40:35.484Z,3.50
2019-01-17T10:43:16.271Z,3.50
2019-01-17T10:46:21.270Z,3.50
2019-01-17T10:49:04.538Z,3.50
2019-01-17T10:52:06.936Z,3.60
2019-01-17T10:55:01.551Z,3.60
2019-01-17T10:57:53.393Z,3.60
2019-01-17T11:00:47.254Z,3.60
2019-01-17T11:03:31.111Z,3.90
2019-01-17T11:06:44.087Z,3.80
2019-01-17T11:09:48.910Z,3.70
2019-01-17T11:12:20.417Z,3.70
2019-01-17T11:15:21.911Z,3.70
2019-01-17T11:17:40.026Z,3.70
2019-01-17T11:20:16.871Z,3.70
2019-01-17T11:23:13.259Z,3.70
2019-01-17T11:25:53.724Z,3.70
2019-01-17T11:28:37.291Z,3.70
2019-01-17T11:31:15.729Z,3.70
2019-01-17T11:33:55.969Z,3.80
2019-01-17T11:36:28.328Z,3.90
2019-01-17T11:39:04.064Z,3.90
2019-01-17T11:41:50.814Z,3.90
2019-01-17T11:44:49.295Z,3.90
2019-01-17T11:48:02.627Z,3.90
2019-01-17T11:50:42.694Z,4.00
2019-01-17T11:53:17.105Z,3.90
2019-01-17T11:55:55.480Z,3.90
2019-01-17T11:58:42.535Z,4.00
2019-01-17T12:01:45.514Z,3.80
2019-01-17T12:04:31.336Z,3.70
2019-01-17T12:07:22.847Z,3.70
2019-01-17T12:09:47.813Z,3.80
2019-01-17T12:12:17.787Z,3.70
2019-01-17T12:14:46.125Z,3.80
2019-01-17T12:17:14.410Z,3.70
2019-01-17T12:19:50.651Z,3.70
2019-01-17T12:22:18.976Z,3.70
2019-01-17T12:24:47.335Z,3.70
2019-01-17T12:27:15.750Z,3.80
2019-01-17T12:29:59.549Z,3.70
2019-01-17T12:32:16.389Z,3.80
2019-01-17T12:34:44.688Z,3.70
2019-01-17T12:37:13.005Z,3.70
2019-01-17T12:39:41.349Z,3.80
2019-01-17T12:42:14.310Z,3.80
2019-01-17T12:44:48.818Z,3.80
2019-01-17T12:47:19.081Z,3.80
2019-01-17T12:49:47.441Z,3.80
2019-01-17T12:52:15.834Z,3.80
2019-01-17T12:54:47.711Z,3.80
2019-01-17T12:57:20.665Z,3.70
2019-01-17T12:59:49.128Z,3.70
2019-01-17T13:02:18.262Z,3.70
2019-01-17T13:04:46.664Z,3.60
2019-01-17T13:07:14.937Z,3.60
2019-01-17T13:09:43.229Z,3.60
2019-01-17T13:12:12.831Z,3.70
2019-01-17T13:14:41.154Z,3.80
2019-01-17T13:17:51.012Z,3.60
2019-01-17T13:19:46.186Z,3.60
2019-01-17T13:22:14.508Z,3.70
2019-01-17T13:24:42.979Z,3.70
2019-01-17T13:27:11.482Z,3.60
2019-01-17T13:30:01.974Z,3.60
2019-01-17T13:32:26.312Z,3.40
2019-01-17T13:34:54.735Z,3.50
2019-01-17T13:37:23.118Z,3.50
2019-01-17T13:39:51.596Z,3.40
2019-01-17T13:42:20.895Z,3.60
2019-01-17T13:44:49.467Z,3.60
2019-01-17T13:47:17.780Z,3.60
2019-01-17T13:49:46.061Z,3.70
2019-01-17T13:52:14.495Z,4.00
2019-01-17T13:54:42.957Z,4.10
2019-01-17T13:57:29.025Z,4.30
2019-01-17T13:59:57.266Z,4.20
2019-01-17T14:02:25.581Z,4.00
2019-01-17T14:04:53.848Z,4.00
2019-01-17T14:07:24.263Z,4.10
2019-01-17T14:09:54.168Z,4.20
2019-01-17T14:12:22.582Z,4.20
2019-01-17T14:14:50.840Z,4.30
2019-01-17T14:17:19.375Z,4.10
2019-01-17T14:19:47.624Z,4.20
2019-01-17T14:22:16.152Z,4.30
2019-01-17T14:24:46.208Z,4.10
2019-01-17T14:27:14.488Z,4.10
2019-01-17T14:29:42.898Z,4.10
2019-01-17T14:32:11.391Z,4.10
2019-01-17T14:34:42.107Z,4.00
2019-01-17T14:37:10.364Z,3.90
2019-01-17T14:39:39.277Z,4.00
2019-01-17T14:42:07.573Z,3.90
2019-01-17T14:44:36.525Z,3.90
2019-01-17T14:47:04.780Z,3.80
2019-01-17T14:49:33.083Z,3.80
2019-01-17T14:52:01.419Z,3.50
2019-01-17T14:54:29.744Z,2.60
2019-01-17T14:56:58.056Z,2.60
2019-01-17T14:59:26.404Z,2.50
2019-01-17T15:01:55.791Z,2.50
2019-01-17T15:04:46.532Z,2.60
2019-01-17T15:07:14.960Z,2.70
2019-01-17T15:09:43.311Z,2.80
2019-01-17T15:12:11.779Z,2.80
2019-01-17T15:14:43.972Z,2.80
2019-01-17T15:17:12.302Z,2.80
2019-01-17T15:19:40.573Z,2.90
2019-01-17T15:22:08.957Z,2.90
2019-01-17T15:24:38.526Z,2.90
2019-01-17T15:27:06.786Z,2.90
2019-01-17T15:29:47.269Z,3.10
2019-01-17T15:32:18.316Z,3.10
2019-01-17T15:34:46.664Z,3.00
2019-01-17T15:37:15.097Z,3.10
2019-01-17T15:39:43.420Z,3.10
2019-01-17T15:42:11.694Z,3.00
2019-01-17T15:44:42.621Z,3.10
2019-01-17T15:47:13.286Z,3.10
2019-01-17T15:49:40.987Z,3.00
2019-01-17T15:52:09.283Z,3.00
2019-01-17T15:54:37.574Z,2.80
2019-01-17T15:57:05.871Z,2.80
2019-01-17T15:59:34.180Z,2.70
2019-01-17T16:02:02.472Z,2.60
2019-01-17T16:04:30.771Z,2.50
2019-01-17T16:06:59.380Z,2.50
2019-01-17T16:09:30.960Z,2.50
2019-01-17T16:11:59.257Z,2.50
2019-01-17T16:14:27.586Z,2.50
2019-01-17T16:16:55.969Z,2.50
2019-01-17T16:19:24.319Z,2.40
2019-01-17T16:21:52.600Z,2.50
2019-01-17T16:24:21.159Z,2.40
2019-01-17T16:26:49.513Z,2.50
2019-01-17T16:29:23.606Z,2.50
2019-01-17T16:31:51.987Z,2.40
2019-01-17T16:34:21.768Z,2.40
2019-01-17T16:36:50.168Z,2.40
2019-01-17T16:39:18.451Z,2.40
2019-01-17T16:42:01.484Z,2.40
2019-01-17T16:44:24.945Z,2.40
2019-01-17T16:46:57.447Z,2.40
2019-01-17T16:49:27.396Z,2.50
2019-01-17T16:51:55.654Z,2.50
2019-01-17T16:54:24.159Z,2.60
2019-01-17T16:56:52.517Z,2.60
2019-01-17T16:59:22.398Z,2.60
2019-01-17T17:01:50.835Z,2.60
2019-01-17T17:04:20.803Z,2.70
2019-01-17T17:06:49.094Z,2.70
2019-01-17T17:09:17.546Z,2.60
2019-01-17T17:11:47.466Z,2.60
2019-01-17T17:14:22.466Z,2.60
2019-01-17T17:16:50.571Z,2.70
2019-01-17T17:19:23.358Z,2.70
2019-01-17T17:21:51.646Z,2.60
2019-01-17T17:24:19.916Z,2.60
2019-01-17T17:26:48.276Z,2.60
2019-01-17T17:29:16.601Z,2.70
2019-01-17T17:31:54.188Z,2.70
2019-01-17T17:34:22.533Z,2.70
2019-01-17T17:36:50.885Z,2.70
2019-01-17T17:39:22.009Z,2.70
2019-01-17T17:41:50.386Z,2.70
2019-01-17T17:44:25.675Z,2.70
2019-01-17T17:46:53.928Z,2.70
2019-01-17T17:49:22.229Z,2.70
2019-01-17T17:51:52.133Z,2.80
2019-01-17T17:54:20.513Z,2.70
2019-01-17T17:56:48.939Z,2.70
2019-01-17T17:59:38.517Z,2.70
2019-01-17T18:02:13.626Z,2.60
2019-01-17T18:04:39.533Z,2.60
2019-01-17T18:07:10.319Z,2.60
2019-01-17T18:09:40.647Z,2.60
2019-01-17T18:12:08.980Z,2.50
2019-01-17T18:14:37.303Z,2.60
2019-01-17T18:17:07.212Z,2.60
2019-01-17T18:19:35.556Z,2.60
2019-01-17T18:22:03.839Z,2.60
2019-01-17T18:24:32.166Z,2.60
2019-01-17T18:27:00.480Z,2.50
2019-01-17T18:29:28.829Z,2.50
2019-01-17T18:31:57.079Z,2.50
2019-01-17T18:34:25.340Z,2.40
2019-01-17T18:36:55.032Z,2.40
2019-01-17T18:39:23.522Z,2.40
2019-01-17T18:41:51.874Z,2.50
2019-01-17T18:44:20.218Z,2.40
